createdAt,value
2023-02-23T00:02:28.045Z,77.27
2023-02-23T00:04:58.088Z,77.65
2023-02-23T00:07:28.107Z,77.35
2023-02-23T00:09:58.182Z,77.17
2023-02-23T00:12:30.820Z,76.80
2023-02-23T00:15:01.361Z,76.75
2023-02-23T00:17:31.719Z,76.57
2023-02-23T00:20:07.480Z,76.54
2023-02-23T00:22:37.808Z,76.20
2023-02-23T00:25:10.258Z,75.99
2023-02-23T00:27:46.096Z,75.70
2023-02-23T00:30:18.386Z,75.75
2023-02-23T00:32:52.973Z,75.65
2023-02-23T00:35:24.997Z,75.71
2023-02-23T00:37:55.034Z,75.11
2023-02-23T00:40:25.316Z,74.80
2023-02-23T00:42:58.299Z,74.86
2023-02-23T00:45:30.666Z,74.52
2023-02-23T00:48:00.681Z,74.72
2023-02-23T00:50:30.984Z,75.03
2023-02-23T00:53:01.825Z,75.01
2023-02-23T00:55:31.874Z,74.75
2023-02-23T00:58:04.834Z,74.99
2023-02-23T01:00:42.294Z,75.30
2023-02-23T01:03:12.313Z,75.12
2023-02-23T01:05:44.020Z,75.19
2023-02-23T01:08:15.544Z,75.44
2023-02-23T01:10:52.464Z,74.87
2023-02-23T01:13:26.994Z,74.98
2023-02-23T01:15:57.138Z,74.95
2023-02-23T01:18:28.917Z,74.84
2023-02-23T01:20:59.023Z,74.58
2023-02-23T01:23:29.135Z,74.65
2023-02-23T01:25:59.149Z,74.59
2023-02-23T01:28:31.854Z,74.75
2023-02-23T01:31:05.932Z,75.04
2023-02-23T01:33:35.995Z,75.38
2023-02-23T01:36:06.076Z,75.26
2023-02-23T01:38:36.180Z,74.96
2023-02-23T01:41:07.498Z,74.65
2023-02-23T01:44:01.527Z,74.88
2023-02-23T01:46:36.366Z,74.92
2023-02-23T01:49:06.888Z,74.83
2023-02-23T01:51:39.652Z,74.70
2023-02-23T01:54:14.472Z,74.79
2023-02-23T01:56:49.369Z,75.00
2023-02-23T01:59:22.879Z,74.88
2023-02-23T02:01:52.979Z,74.68
2023-02-23T02:04:25.430Z,74.86
2023-02-23T02:06:57.039Z,74.44
2023-02-23T02:09:28.519Z,74.43
2023-02-23T02:11:59.128Z,74.75
2023-02-23T02:14:33.760Z,75.16
2023-02-23T02:17:18.167Z,75.14
2023-02-23T02:20:26.480Z,75.26
2023-02-23T02:23:31.832Z,75.31
2023-02-23T02:26:11.699Z,75.47
2023-02-23T02:29:00.088Z,75.49
2023-02-23T02:32:08.075Z,75.66
2023-02-23T02:35:04.450Z,75.55
2023-02-23T02:37:56.772Z,75.28
2023-02-23T02:40:32.582Z,75.24
2023-02-23T02:43:10.380Z,75.48
2023-02-23T02:45:48.881Z,75.38
2023-02-23T02:48:25.806Z,75.01
2023-02-23T02:50:59.336Z,75.14
2023-02-23T02:53:38.789Z,75.01
2023-02-23T02:56:09.992Z,74.83
2023-02-23T02:58:43.658Z,74.71
2023-02-23T03:01:29.967Z,74.60
2023-02-23T03:04:14.784Z,74.73
2023-02-23T03:07:02.016Z,75.14
2023-02-23T03:09:52.631Z,75.02
2023-02-23T03:12:42.756Z,74.62
2023-02-23T03:15:36.854Z,74.08
2023-02-23T03:18:26.418Z,74.35
2023-02-23T03:21:15.407Z,74.12
2023-02-23T03:24:05.399Z,73.87
2023-02-23T03:26:54.242Z,73.71
2023-02-23T03:29:46.228Z,74.01
2023-02-23T03:32:36.151Z,74.17
2023-02-23T03:35:22.805Z,74.11
2023-02-23T03:38:09.830Z,73.93
2023-02-23T03:40:54.786Z,74.15
2023-02-23T03:43:49.002Z,75.23
2023-02-23T03:46:34.009Z,76.22
2023-02-23T03:49:19.599Z,77.19
2023-02-23T03:52:04.863Z,77.98
2023-02-23T03:54:50.593Z,78.72
2023-02-23T03:57:35.793Z,79.17
2023-02-23T04:00:25.178Z,79.39
2023-02-23T04:03:09.679Z,79.10
2023-02-23T04:05:55.345Z,78.91
2023-02-23T04:08:41.743Z,78.37
2023-02-23T04:11:42.891Z,78.19
2023-02-23T04:14:17.344Z,77.90
2023-02-23T04:16:47.596Z,77.87
2023-02-23T04:19:17.735Z,77.80
2023-02-23T04:21:47.808Z,77.54
2023-02-23T04:24:17.843Z,78.31
2023-02-23T04:26:47.933Z,79.63
2023-02-23T04:29:18.294Z,79.55
2023-02-23T04:31:52.183Z,78.86
2023-02-23T04:34:22.285Z,78.51
2023-02-23T04:36:52.569Z,78.45
2023-02-23T04:39:22.644Z,77.90
2023-02-23T04:41:52.902Z,77.82
2023-02-23T04:44:23.237Z,77.79
2023-02-23T04:46:55.922Z,78.02
2023-02-23T04:49:26.753Z,78.86
2023-02-23T04:51:56.809Z,79.00
2023-02-23T04:54:26.862Z,79.24
2023-02-23T04:56:56.983Z,79.45
2023-02-23T04:59:27.177Z,79.53
2023-02-23T05:01:59.863Z,79.34
2023-02-23T05:04:29.928Z,79.85
2023-02-23T05:07:00.432Z,80.14
2023-02-23T05:09:30.608Z,80.85
2023-02-23T05:12:00.651Z,80.82
2023-02-23T05:14:30.776Z,81.29
2023-02-23T05:17:03.510Z,81.35
2023-02-23T05:19:33.575Z,81.38
2023-02-23T05:22:03.597Z,80.81
2023-02-23T05:24:33.662Z,81.08
2023-02-23T05:27:03.681Z,81.16
2023-02-23T05:29:33.791Z,81.33
2023-02-23T05:32:06.607Z,81.19
2023-02-23T05:34:39.272Z,81.42
2023-02-23T05:37:09.465Z,81.39
2023-02-23T05:39:39.555Z,81.79
2023-02-23T05:42:09.833Z,82.09
2023-02-23T05:44:39.875Z,82.52
2023-02-23T05:47:13.308Z,82.68
2023-02-23T05:49:43.585Z,83.00
2023-02-23T05:52:13.654Z,82.85
2023-02-23T05:54:43.731Z,82.00
2023-02-23T05:57:13.735Z,82.31
2023-02-23T05:59:43.972Z,82.21
2023-02-23T06:02:16.606Z,82.54
2023-02-23T06:04:47.112Z,82.92
2023-02-23T06:07:17.207Z,83.19
2023-02-23T06:09:47.269Z,82.95
2023-02-23T06:12:17.361Z,82.52
2023-02-23T06:14:47.523Z,82.42
2023-02-23T06:17:21.068Z,82.68
2023-02-23T06:19:51.223Z,83.55
2023-02-23T06:22:21.278Z,83.86
2023-02-23T06:24:51.462Z,83.55
2023-02-23T06:27:21.739Z,83.02
2023-02-23T06:29:51.806Z,82.58
2023-02-23T06:32:24.497Z,82.93
2023-02-23T06:34:54.755Z,81.72
2023-02-23T06:37:24.876Z,81.27
2023-02-23T06:39:55.056Z,80.43
2023-02-23T06:42:25.166Z,79.73
2023-02-23T06:44:55.270Z,79.40
2023-02-23T06:47:27.981Z,79.62
2023-02-23T06:50:00.003Z,79.52
2023-02-23T06:52:30.111Z,79.19
2023-02-23T06:55:00.609Z,79.02
2023-02-23T06:57:30.819Z,78.98
2023-02-23T07:00:01.825Z,79.28
2023-02-23T07:02:35.282Z,79.31
2023-02-23T07:05:05.313Z,79.14
2023-02-23T07:07:35.826Z,78.68
2023-02-23T07:10:06.389Z,78.32
2023-02-23T07:12:36.523Z,78.17
2023-02-23T07:15:07.277Z,78.12
2023-02-23T07:17:40.071Z,78.11
2023-02-23T07:20:11.151Z,77.82
2023-02-23T07:22:41.176Z,77.58
2023-02-23T07:25:12.425Z,76.89
2023-02-23T07:27:42.552Z,76.77
2023-02-23T07:30:14.002Z,76.75
2023-02-23T07:32:46.818Z,76.39
2023-02-23T07:35:16.891Z,76.55
2023-02-23T07:37:46.975Z,76.28
2023-02-23T07:40:17.723Z,76.08
2023-02-23T07:42:47.826Z,75.40
2023-02-23T07:45:18.201Z,75.22
2023-02-23T07:47:50.894Z,74.89
2023-02-23T07:50:21.054Z,74.34
2023-02-23T07:52:51.204Z,73.84
2023-02-23T07:55:22.527Z,73.54
2023-02-23T07:57:52.589Z,73.29
2023-02-23T08:00:23.244Z,72.97
2023-02-23T08:02:56.022Z,72.86
2023-02-23T08:05:26.640Z,72.76
2023-02-23T08:07:57.999Z,72.37
2023-02-23T08:10:28.544Z,72.11
2023-02-23T08:12:58.620Z,72.12
2023-02-23T08:15:28.740Z,71.25
2023-02-23T08:18:01.494Z,71.18
2023-02-23T08:20:31.681Z,70.94
2023-02-23T08:23:02.201Z,71.38
2023-02-23T08:25:33.121Z,70.82
2023-02-23T08:28:04.850Z,70.40
2023-02-23T08:30:35.475Z,69.93
2023-02-23T08:33:08.378Z,70.18
2023-02-23T08:35:38.478Z,69.76
2023-02-23T08:38:08.504Z,69.67
2023-02-23T08:40:38.543Z,69.13
2023-02-23T08:43:08.523Z,68.50
2023-02-23T08:45:38.811Z,68.02
2023-02-23T08:48:11.741Z,67.82
2023-02-23T08:50:41.874Z,67.94
2023-02-23T08:53:11.989Z,67.97
2023-02-23T08:55:42.115Z,67.72
2023-02-23T08:58:12.801Z,67.15
2023-02-23T09:00:43.315Z,66.44
2023-02-23T09:03:16.041Z,66.05
2023-02-23T09:05:46.406Z,66.36
2023-02-23T09:08:17.409Z,66.61
2023-02-23T09:10:49.981Z,66.56
2023-02-23T09:13:20.080Z,66.06
2023-02-23T09:15:50.825Z,65.46
2023-02-23T09:18:28.000Z,63.75
2023-02-23T09:20:58.178Z,62.80
2023-02-23T09:23:31.692Z,62.29
2023-02-23T09:26:05.845Z,60.62
2023-02-23T09:28:36.434Z,59.34
2023-02-23T09:31:09.372Z,59.47
2023-02-23T09:33:42.404Z,58.81
2023-02-23T09:36:16.376Z,57.87
2023-02-23T09:38:46.858Z,57.83
2023-02-23T09:41:43.353Z,56.52
2023-02-23T09:44:21.583Z,56.61
2023-02-23T09:46:57.462Z,55.73
2023-02-23T09:49:33.554Z,55.51
2023-02-23T09:52:05.754Z,54.90
2023-02-23T09:54:37.516Z,54.23
2023-02-23T09:57:14.425Z,52.74
2023-02-23T09:59:45.180Z,53.25
2023-02-23T10:02:27.169Z,52.70
2023-02-23T10:05:02.897Z,51.39
2023-02-23T10:07:40.725Z,50.86
2023-02-23T10:10:21.464Z,50.46
2023-02-23T10:12:58.061Z,50.28
2023-02-23T10:15:31.197Z,49.35
2023-02-23T10:18:15.215Z,49.50
2023-02-23T10:20:54.112Z,49.37
2023-02-23T10:23:31.368Z,49.12
2023-02-23T10:26:03.968Z,49.73
2023-02-23T10:28:39.179Z,49.16
2023-02-23T10:31:24.035Z,48.72
2023-02-23T10:33:55.820Z,48.65
2023-02-23T10:36:36.187Z,49.18
2023-02-23T10:39:09.262Z,47.99
2023-02-23T10:41:40.142Z,47.92
2023-02-23T10:44:20.575Z,47.70
2023-02-23T10:46:55.765Z,47.61
2023-02-23T10:49:30.305Z,47.78
2023-02-23T10:52:03.859Z,49.23
2023-02-23T10:54:47.768Z,50.51
2023-02-23T10:57:27.804Z,50.73
2023-02-23T11:00:32.958Z,51.83
2023-02-23T11:03:04.651Z,52.90
2023-02-23T11:05:50.627Z,53.18
2023-02-23T11:08:32.238Z,53.21
2023-02-23T11:11:11.728Z,53.94
2023-02-23T11:13:44.443Z,54.37
2023-02-23T11:16:16.010Z,54.52
2023-02-23T11:18:54.901Z,54.58
2023-02-23T11:21:27.660Z,55.18
2023-02-23T11:24:01.951Z,55.75
2023-02-23T11:26:35.758Z,55.22
2023-02-23T11:29:11.141Z,56.30
2023-02-23T11:31:41.775Z,54.72
2023-02-23T11:34:25.682Z,53.05
2023-02-23T11:37:07.399Z,49.74
2023-02-23T11:39:40.628Z,48.78
2023-02-23T11:42:19.834Z,47.20
2023-02-23T11:44:56.036Z,45.13
2023-02-23T11:47:27.143Z,44.31
2023-02-23T11:49:57.549Z,43.49
2023-02-23T11:52:28.779Z,42.30
2023-02-23T11:55:03.432Z,42.63
2023-02-23T11:57:35.966Z,43.11
2023-02-23T12:00:16.895Z,44.48
2023-02-23T12:02:55.466Z,46.38
2023-02-23T12:05:27.256Z,47.90
2023-02-23T12:08:00.636Z,47.84
2023-02-23T12:10:37.189Z,48.11
2023-02-23T12:13:15.436Z,48.17
2023-02-23T12:15:51.230Z,48.53
2023-02-23T12:18:33.488Z,49.09
2023-02-23T12:21:11.275Z,50.62
2023-02-23T12:23:44.291Z,52.24
2023-02-23T12:26:21.715Z,53.74
2023-02-23T12:28:58.927Z,54.12
2023-02-23T12:31:31.865Z,55.68
2023-02-23T12:34:05.932Z,57.16
2023-02-23T12:36:41.351Z,57.03
2023-02-23T12:39:20.891Z,56.40
2023-02-23T12:42:00.346Z,57.16
2023-02-23T12:44:38.512Z,56.10
2023-02-23T12:47:15.490Z,53.92
2023-02-23T12:49:49.065Z,53.14
2023-02-23T12:52:22.421Z,53.30
2023-02-23T12:54:52.486Z,54.06
2023-02-23T12:57:33.465Z,54.67
2023-02-23T13:00:36.477Z,56.53
2023-02-23T13:03:41.814Z,56.70
2023-02-23T13:06:14.664Z,57.59
2023-02-23T13:08:59.239Z,57.28
2023-02-23T13:12:03.374Z,57.80
2023-02-23T13:14:43.312Z,56.92
2023-02-23T13:17:27.378Z,56.99
2023-02-23T13:20:01.707Z,57.29
2023-02-23T13:22:36.791Z,57.03
2023-02-23T13:25:18.817Z,57.29
2023-02-23T13:27:53.388Z,56.95
2023-02-23T13:30:26.347Z,56.25
2023-02-23T13:32:58.331Z,57.06
2023-02-23T13:35:30.189Z,56.75
2023-02-23T13:38:07.599Z,57.05
2023-02-23T13:40:41.119Z,57.96
2023-02-23T13:43:18.813Z,59.73
2023-02-23T13:46:02.324Z,60.34
2023-02-23T13:48:56.057Z,60.30
2023-02-23T13:51:36.179Z,61.53
2023-02-23T13:54:10.115Z,61.16
2023-02-23T13:56:46.396Z,60.93
2023-02-23T13:59:20.584Z,61.17
2023-02-23T14:01:56.071Z,61.66
2023-02-23T14:04:28.633Z,61.76
2023-02-23T14:07:08.346Z,62.18
2023-02-23T14:09:40.665Z,61.86
2023-02-23T14:12:19.514Z,62.09
2023-02-23T14:14:50.033Z,62.55
2023-02-23T14:17:50.604Z,62.27
2023-02-23T14:20:37.380Z,62.05
2023-02-23T14:23:31.736Z,61.66
2023-02-23T14:26:20.628Z,61.53
2023-02-23T14:28:52.159Z,60.37
2023-02-23T14:31:26.230Z,59.52
2023-02-23T14:34:03.505Z,58.55
2023-02-23T14:36:41.538Z,58.02
2023-02-23T14:39:17.400Z,58.01
2023-02-23T14:41:53.007Z,58.43
2023-02-23T14:44:29.982Z,58.30
2023-02-23T14:47:04.878Z,58.52
2023-02-23T14:49:40.798Z,59.27
2023-02-23T14:52:12.840Z,60.65
2023-02-23T14:54:44.020Z,61.16
2023-02-23T14:57:21.931Z,61.89
2023-02-23T14:59:57.522Z,62.71
2023-02-23T15:02:29.400Z,63.47
2023-02-23T15:05:02.200Z,64.08
2023-02-23T15:07:35.378Z,64.31
2023-02-23T15:10:11.987Z,64.62
2023-02-23T15:12:42.418Z,64.44
2023-02-23T15:15:20.913Z,65.13
2023-02-23T15:17:53.271Z,65.55
2023-02-23T15:20:28.872Z,65.54
2023-02-23T15:23:00.659Z,65.75
2023-02-23T15:25:38.816Z,66.38
2023-02-23T15:28:25.457Z,66.56
2023-02-23T15:30:56.615Z,66.62
2023-02-23T15:33:28.958Z,67.02
2023-02-23T15:36:09.553Z,67.52
2023-02-23T15:38:44.668Z,67.59
2023-02-23T15:41:23.259Z,67.88
2023-02-23T15:43:53.450Z,68.72
2023-02-23T15:46:26.791Z,68.36
2023-02-23T15:48:57.956Z,69.09
2023-02-23T15:51:35.785Z,69.36
2023-02-23T15:54:14.194Z,70.27
2023-02-23T15:56:46.993Z,71.98
2023-02-23T15:59:24.235Z,74.83
2023-02-23T16:01:57.289Z,78.12
2023-02-23T16:04:32.475Z,80.11
2023-02-23T16:07:20.000Z,82.06
2023-02-23T16:09:52.889Z,83.78
2023-02-23T16:12:26.203Z,86.17
2023-02-23T16:14:58.740Z,87.87
2023-02-23T16:17:31.926Z,90.06
2023-02-23T16:20:13.884Z,92.81
2023-02-23T16:22:48.027Z,94.89
2023-02-23T16:25:20.816Z,96.35
2023-02-23T16:27:55.741Z,97.62
2023-02-23T16:30:37.682Z,98.70
2023-02-23T16:33:10.354Z,99.81
2023-02-23T16:35:42.142Z,99.71
2023-02-23T16:38:23.781Z,99.02
2023-02-23T16:40:53.938Z,98.55
2023-02-23T16:43:24.444Z,97.90
2023-02-23T16:45:54.783Z,97.08
2023-02-23T16:48:24.872Z,96.01
2023-02-23T16:50:55.208Z,94.82
2023-02-23T16:53:27.873Z,94.42
2023-02-23T16:56:01.003Z,93.61
2023-02-23T16:58:32.747Z,92.99
2023-02-23T17:01:02.873Z,93.27
2023-02-23T17:03:36.029Z,94.48
2023-02-23T17:06:08.860Z,94.56
2023-02-23T17:08:52.192Z,94.80
2023-02-23T17:11:26.154Z,94.50
2023-02-23T17:13:56.351Z,95.16
2023-02-23T17:16:26.540Z,94.49
2023-02-23T17:18:59.696Z,95.70
2023-02-23T17:21:31.844Z,94.72
2023-02-23T17:24:04.589Z,95.52
2023-02-23T17:26:34.644Z,96.50
2023-02-23T17:29:04.829Z,96.78
2023-02-23T17:31:36.260Z,95.53
2023-02-23T17:34:06.457Z,95.35
2023-02-23T17:36:36.853Z,96.34
2023-02-23T17:39:10.068Z,97.10
2023-02-23T17:41:40.133Z,97.95
2023-02-23T17:44:10.185Z,99.10
2023-02-23T17:46:40.597Z,99.91
2023-02-23T17:49:10.666Z,100.00
2023-02-23T17:51:40.803Z,100.00
2023-02-23T17:54:14.236Z,100.00
2023-02-23T17:56:44.835Z,100.00
2023-02-23T17:59:15.273Z,100.00
2023-02-23T18:01:47.341Z,100.00
2023-02-23T18:04:18.432Z,100.00
2023-02-23T18:06:48.528Z,100.00
2023-02-23T18:09:21.223Z,100.00
2023-02-23T18:11:51.344Z,100.00
2023-02-23T18:14:21.405Z,100.00
2023-02-23T18:16:51.547Z,100.00
2023-02-23T18:19:21.888Z,100.00
2023-02-23T18:21:54.862Z,100.00
2023-02-23T18:24:31.051Z,100.00
2023-02-23T18:27:03.473Z,100.00
2023-02-23T18:29:34.906Z,100.00
2023-02-23T18:32:08.087Z,100.00
2023-02-23T18:34:38.357Z,100.00
2023-02-23T18:37:10.334Z,100.00
2023-02-23T18:39:43.195Z,100.00
2023-02-23T18:42:13.263Z,100.00
2023-02-23T18:44:43.321Z,100.00
2023-02-23T18:47:13.368Z,100.00
2023-02-23T18:49:43.509Z,100.00
2023-02-23T18:52:13.671Z,100.00
2023-02-23T18:54:46.402Z,100.00
2023-02-23T18:57:16.477Z,100.00
2023-02-23T18:59:47.556Z,100.00
2023-02-23T19:02:19.019Z,100.00
2023-02-23T19:04:49.147Z,100.00
2023-02-23T19:07:19.999Z,100.00
2023-02-23T19:09:52.656Z,100.00
2023-02-23T19:12:22.741Z,100.00
2023-02-23T19:14:53.832Z,100.00
2023-02-23T19:17:24.565Z,100.00
2023-02-23T19:19:56.193Z,100.00
2023-02-23T19:22:26.602Z,100.00
2023-02-23T19:24:59.361Z,100.00
2023-02-23T19:27:29.452Z,100.00
2023-02-23T19:29:59.652Z,100.00
2023-02-23T19:32:29.913Z,100.00
2023-02-23T19:34:59.993Z,100.00
2023-02-23T19:37:30.039Z,100.00
2023-02-23T19:40:04.088Z,100.00
2023-02-23T19:42:36.957Z,100.00
2023-02-23T19:45:07.798Z,100.00
2023-02-23T19:47:37.834Z,100.00
2023-02-23T19:50:08.515Z,100.00
2023-02-23T19:52:38.896Z,100.00
2023-02-23T19:55:12.958Z,100.00
2023-02-23T19:57:43.210Z,100.00
2023-02-23T20:00:14.630Z,100.00
2023-02-23T20:02:45.536Z,100.00
2023-02-23T20:05:17.481Z,100.00
2023-02-23T20:07:48.369Z,100.00
2023-02-23T20:10:25.800Z,100.00
2023-02-23T20:12:56.047Z,100.00
2023-02-23T20:15:28.574Z,100.00
2023-02-23T20:17:58.587Z,100.00
2023-02-23T20:20:29.280Z,100.00
2023-02-23T20:22:59.472Z,100.00
2023-02-23T20:25:32.269Z,100.00
2023-02-23T20:28:02.431Z,100.00
2023-02-23T20:30:32.952Z,100.00
2023-02-23T20:33:06.465Z,100.00
2023-02-23T20:35:36.721Z,100.00
2023-02-23T20:38:07.074Z,100.00
2023-02-23T20:40:40.317Z,100.00
2023-02-23T20:43:10.479Z,100.00
2023-02-23T20:45:41.760Z,100.00
2023-02-23T20:48:12.456Z,100.00
2023-02-23T20:50:43.601Z,100.00
2023-02-23T20:53:13.870Z,100.00
2023-02-23T20:55:46.573Z,100.00
2023-02-23T20:58:26.299Z,100.00
2023-02-23T21:00:57.247Z,100.00
2023-02-23T21:03:28.195Z,100.00
2023-02-23T21:05:58.411Z,100.00
2023-02-23T21:08:28.924Z,100.00
2023-02-23T21:11:08.994Z,100.00
2023-02-23T21:13:39.614Z,100.00
2023-02-23T21:16:10.619Z,100.00
2023-02-23T21:18:40.691Z,100.00
2023-02-23T21:21:14.057Z,100.00
2023-02-23T21:23:45.172Z,100.00
2023-02-23T21:26:21.761Z,100.00
2023-02-23T21:28:52.093Z,100.00
2023-02-23T21:31:22.524Z,100.00
2023-02-23T21:33:53.102Z,100.00
2023-02-23T21:36:23.301Z,100.00
2023-02-23T21:38:53.393Z,100.00
2023-02-23T21:41:27.500Z,100.00
2023-02-23T21:43:57.733Z,100.00
2023-02-23T21:46:27.986Z,100.00
2023-02-23T21:48:58.296Z,100.00
2023-02-23T21:51:28.742Z,100.00
2023-02-23T21:54:00.303Z,100.00
2023-02-23T21:56:34.962Z,100.00
2023-02-23T21:59:08.340Z,100.00
2023-02-23T22:01:40.940Z,100.00
2023-02-23T22:04:12.098Z,100.00
2023-02-23T22:06:43.853Z,100.00
2023-02-23T22:09:15.753Z,100.00
2023-02-23T22:11:50.292Z,100.00
2023-02-23T22:14:22.343Z,100.00
2023-02-23T22:16:52.612Z,100.00
2023-02-23T22:19:22.797Z,100.00
2023-02-23T22:21:52.894Z,100.00
2023-02-23T22:24:22.945Z,100.00
2023-02-23T22:26:56.917Z,100.00
2023-02-23T22:29:28.760Z,100.00
2023-02-23T22:31:58.919Z,100.00
2023-02-23T22:34:29.115Z,100.00
2023-02-23T22:36:59.235Z,100.00
2023-02-23T22:39:33.393Z,100.00
2023-02-23T22:42:09.466Z,100.00
2023-02-23T22:44:41.903Z,100.00
2023-02-23T22:47:12.056Z,100.00
2023-02-23T22:49:42.181Z,100.00
2023-02-23T22:52:12.899Z,100.00
2023-02-23T22:54:45.661Z,100.00
2023-02-23T22:57:18.396Z,100.00
2023-02-23T22:59:54.849Z,100.00
2023-02-23T23:02:25.341Z,100.00
2023-02-23T23:04:55.463Z,100.00
2023-02-23T23:07:26.081Z,100.00
2023-02-23T23:09:56.530Z,100.00
2023-02-23T23:12:29.722Z,100.00
2023-02-23T23:15:01.411Z,100.00
2023-02-23T23:17:31.932Z,100.00
2023-02-23T23:20:10.772Z,100.00
2023-02-23T23:22:41.642Z,100.00
2023-02-23T23:25:14.987Z,100.00
2023-02-23T23:27:48.097Z,100.00
2023-02-23T23:30:21.199Z,100.00
2023-02-23T23:32:51.327Z,100.00
2023-02-23T23:35:21.977Z,100.00
2023-02-23T23:37:52.781Z,100.00
2023-02-23T23:40:24.623Z,100.00
2023-02-23T23:42:57.469Z,100.00
2023-02-23T23:45:27.961Z,100.00
2023-02-23T23:47:58.101Z,100.00
2023-02-23T23:50:28.162Z,100.00
2023-02-23T23:52:58.232Z,100.00
2023-02-23T23:55:31.665Z,100.00
2023-02-23T23:58:06.219Z,100.00
